createdAt,value
2023-05-14T00:02:13.228Z,45.49
2023-05-14T00:04:42.228Z,45.90
2023-05-14T00:07:11.872Z,45.94
2023-05-14T00:09:41.066Z,47.61
2023-05-14T00:12:10.199Z,48.21
2023-05-14T00:14:39.257Z,47.62
2023-05-14T00:17:09.582Z,45.99
2023-05-14T00:19:43.384Z,45.69
2023-05-14T00:22:12.906Z,45.91
2023-05-14T00:24:41.967Z,45.44
2023-05-14T00:27:11.697Z,47.70
2023-05-14T00:29:42.168Z,48.04
2023-05-14T00:32:16.418Z,46.27
2023-05-14T00:34:45.628Z,45.91
2023-05-14T00:37:15.448Z,46.56
2023-05-14T00:39:44.554Z,46.58
2023-05-14T00:42:13.698Z,45.61
2023-05-14T00:44:47.146Z,46.06
2023-05-14T00:47:21.184Z,46.05
2023-05-14T00:49:50.356Z,46.02
2023-05-14T00:52:19.658Z,45.90
2023-05-14T00:54:49.310Z,45.85
2023-05-14T00:57:20.314Z,46.48
2023-05-14T00:59:49.939Z,54.16
2023-05-14T01:02:20.352Z,61.45
2023-05-14T01:04:49.864Z,57.16
2023-05-14T01:07:31.221Z,57.10
2023-05-14T01:10:13.079Z,51.46
2023-05-14T01:12:49.137Z,54.49
2023-05-14T01:15:25.128Z,52.04
2023-05-14T01:18:00.631Z,54.17
2023-05-14T01:20:29.723Z,50.29
2023-05-14T01:23:01.040Z,52.81
2023-05-14T01:25:31.064Z,61.19
2023-05-14T01:28:05.167Z,60.74
2023-05-14T01:30:37.609Z,64.54
2023-05-14T01:33:11.260Z,64.96
2023-05-14T01:35:41.627Z,79.63
2023-05-14T01:38:14.934Z,89.93
2023-05-14T01:40:43.854Z,81.13
2023-05-14T01:43:13.095Z,86.35
2023-05-14T01:45:44.157Z,85.02
2023-05-14T01:48:13.264Z,77.28
2023-05-14T01:50:42.610Z,88.50
2023-05-14T01:53:13.262Z,82.95
2023-05-14T01:55:42.625Z,84.91
2023-05-14T01:58:12.310Z,72.56
2023-05-14T02:00:41.588Z,61.39
2023-05-14T02:03:10.692Z,58.78
2023-05-14T02:05:39.993Z,57.28
2023-05-14T02:08:09.155Z,56.53
2023-05-14T02:10:39.684Z,55.95
2023-05-14T02:13:09.734Z,57.00
2023-05-14T02:15:42.487Z,56.35
2023-05-14T02:18:12.156Z,56.49
2023-05-14T02:20:41.289Z,56.36
2023-05-14T02:23:10.300Z,56.06
2023-05-14T02:25:40.538Z,55.25
2023-05-14T02:28:10.038Z,53.76
2023-05-14T02:30:41.260Z,53.18
2023-05-14T02:33:10.309Z,53.23
2023-05-14T02:35:39.262Z,52.66
2023-05-14T02:38:10.500Z,52.61
2023-05-14T02:40:40.696Z,54.38
2023-05-14T02:43:10.219Z,53.27
2023-05-14T02:45:39.238Z,52.70
2023-05-14T02:48:08.741Z,52.21
2023-05-14T02:50:39.710Z,53.54
2023-05-14T02:53:08.796Z,53.29
2023-05-14T02:55:38.048Z,53.13
2023-05-14T02:58:08.756Z,53.95
2023-05-14T03:00:37.680Z,53.53
2023-05-14T03:03:07.008Z,53.75
2023-05-14T03:05:36.569Z,52.30
2023-05-14T03:08:05.631Z,54.10
2023-05-14T03:10:34.779Z,53.46
2023-05-14T03:13:06.614Z,52.97
2023-05-14T03:15:37.227Z,53.50
2023-05-14T03:18:06.894Z,50.84
2023-05-14T03:20:37.194Z,50.25
2023-05-14T03:23:06.407Z,50.44
2023-05-14T03:25:35.565Z,50.71
2023-05-14T03:28:07.421Z,50.41
2023-05-14T03:30:38.201Z,49.84
2023-05-14T03:33:07.561Z,50.46
2023-05-14T03:35:37.178Z,49.85
2023-05-14T03:38:06.097Z,49.42
2023-05-14T03:40:36.868Z,49.46
2023-05-14T03:43:06.856Z,48.83
2023-05-14T03:45:37.538Z,47.57
2023-05-14T03:48:07.438Z,46.72
2023-05-14T03:50:37.208Z,47.14
2023-05-14T03:53:09.277Z,46.51
2023-05-14T03:55:40.866Z,46.63
2023-05-14T03:58:14.417Z,48.42
2023-05-14T04:00:45.372Z,50.90
2023-05-14T04:03:14.853Z,50.79
2023-05-14T04:05:44.579Z,50.90
2023-05-14T04:08:13.749Z,53.94
2023-05-14T04:10:46.314Z,54.33
2023-05-14T04:13:15.380Z,53.08
2023-05-14T04:15:48.434Z,52.57
2023-05-14T04:18:17.542Z,50.08
2023-05-14T04:20:46.657Z,47.83
2023-05-14T04:23:15.779Z,47.11
2023-05-14T04:25:47.827Z,45.82
2023-05-14T04:28:16.851Z,45.80
2023-05-14T04:30:47.165Z,45.64
2023-05-14T04:33:18.269Z,44.56
2023-05-14T04:35:50.552Z,43.29
2023-05-14T04:38:19.766Z,42.87
2023-05-14T04:40:48.700Z,43.68
2023-05-14T04:43:18.319Z,44.25
2023-05-14T04:45:50.187Z,45.08
2023-05-14T04:48:19.157Z,45.61
2023-05-14T04:50:48.353Z,45.52
2023-05-14T04:53:20.741Z,46.41
2023-05-14T04:55:50.045Z,47.27
2023-05-14T04:58:19.149Z,47.73
2023-05-14T05:00:49.741Z,47.74
2023-05-14T05:03:18.925Z,48.20
2023-05-14T05:05:48.251Z,47.76
2023-05-14T05:08:17.380Z,47.62
2023-05-14T05:10:46.368Z,47.11
2023-05-14T05:13:19.157Z,46.15
2023-05-14T05:15:49.624Z,46.30
2023-05-14T05:18:19.185Z,44.42
2023-05-14T05:20:49.295Z,44.54
2023-05-14T05:23:18.378Z,44.86
2023-05-14T05:25:47.446Z,43.44
2023-05-14T05:28:16.605Z,42.94
2023-05-14T05:30:46.505Z,42.57
2023-05-14T05:33:17.188Z,42.25
2023-05-14T05:35:46.396Z,41.81
2023-05-14T05:38:18.708Z,42.07
2023-05-14T05:40:48.108Z,40.79
2023-05-14T05:43:17.663Z,40.43
2023-05-14T05:45:51.802Z,41.16
2023-05-14T05:48:22.177Z,41.20
2023-05-14T05:50:51.580Z,40.36
2023-05-14T05:53:20.609Z,41.17
2023-05-14T05:55:51.797Z,40.44
2023-05-14T05:58:21.080Z,40.70
2023-05-14T06:00:50.681Z,40.89
2023-05-14T06:03:19.715Z,40.78
2023-05-14T06:05:50.838Z,40.76
2023-05-14T06:08:20.217Z,40.38
2023-05-14T06:10:49.310Z,41.00
2023-05-14T06:13:18.285Z,40.83
2023-05-14T06:15:47.595Z,40.96
2023-05-14T06:18:16.900Z,39.89
2023-05-14T06:20:46.518Z,40.16
2023-05-14T06:23:17.240Z,40.65
2023-05-14T06:25:46.174Z,41.30
2023-05-14T06:28:15.144Z,41.47
2023-05-14T06:30:46.901Z,41.12
2023-05-14T06:33:20.547Z,41.77
2023-05-14T06:35:49.603Z,41.71
2023-05-14T06:38:22.799Z,41.36
2023-05-14T06:43:27.210Z,41.54
2023-05-14T06:45:57.680Z,42.19
2023-05-14T06:48:29.613Z,40.95
2023-05-14T06:51:06.538Z,41.12
2023-05-14T06:53:39.798Z,41.49
2023-05-14T06:56:15.380Z,41.81
2023-05-14T06:58:44.767Z,40.94
2023-05-14T07:01:13.780Z,41.08
2023-05-14T07:03:47.284Z,40.70
2023-05-14T07:06:16.488Z,41.15
2023-05-14T07:08:47.092Z,40.90
2023-05-14T07:11:28.415Z,40.09
2023-05-14T07:14:11.311Z,40.50
2023-05-14T07:16:40.354Z,39.89
2023-05-14T07:19:11.323Z,39.49
2023-05-14T07:21:43.035Z,39.65
2023-05-14T07:24:13.459Z,39.11
2023-05-14T07:26:42.462Z,39.56
2023-05-14T07:29:11.388Z,39.00
2023-05-14T07:31:42.759Z,38.61
2023-05-14T07:34:12.899Z,39.15
2023-05-14T07:36:44.765Z,39.21
2023-05-14T07:39:15.391Z,38.36
2023-05-14T07:41:45.719Z,37.51
2023-05-14T07:44:14.743Z,37.86
2023-05-14T07:46:46.786Z,38.08
2023-05-14T07:49:15.948Z,37.78
2023-05-14T07:51:45.308Z,38.09
2023-05-14T07:54:15.799Z,38.17
2023-05-14T07:56:53.231Z,37.67
2023-05-14T07:59:29.126Z,36.90
2023-05-14T08:01:58.442Z,36.85
2023-05-14T08:04:27.788Z,37.21
2023-05-14T08:06:58.235Z,36.19
2023-05-14T08:09:29.338Z,36.29
2023-05-14T08:12:05.153Z,35.72
2023-05-14T08:14:37.297Z,35.61
2023-05-14T08:17:07.151Z,34.97
2023-05-14T08:19:36.724Z,34.92
2023-05-14T08:22:08.524Z,33.81
2023-05-14T08:24:43.211Z,34.05
2023-05-14T08:27:12.476Z,33.94
2023-05-14T08:29:42.872Z,33.29
2023-05-14T08:32:22.906Z,32.52
2023-05-14T08:34:54.251Z,31.70
2023-05-14T08:37:24.916Z,31.64
2023-05-14T08:39:58.052Z,31.33
2023-05-14T08:42:28.043Z,30.99
2023-05-14T08:45:03.177Z,30.48
2023-05-14T08:47:33.585Z,30.85
2023-05-14T08:50:07.509Z,30.76
2023-05-14T08:52:36.392Z,30.16
2023-05-14T08:55:07.975Z,30.49
2023-05-14T08:57:37.505Z,29.77
2023-05-14T09:00:11.499Z,30.48
2023-05-14T09:02:47.796Z,30.20
2023-05-14T09:05:22.880Z,29.70
2023-05-14T09:07:54.777Z,28.78
2023-05-14T09:10:26.310Z,29.00
2023-05-14T09:13:02.030Z,28.37
2023-05-14T09:15:33.029Z,27.71
2023-05-14T09:18:02.132Z,27.68
2023-05-14T09:20:32.793Z,27.70
2023-05-14T09:23:02.094Z,27.79
2023-05-14T09:25:36.498Z,27.48
2023-05-14T09:28:10.185Z,27.76
2023-05-14T09:30:41.320Z,27.00
2023-05-14T09:33:11.034Z,27.35
2023-05-14T09:35:54.842Z,27.56
2023-05-14T09:38:33.848Z,27.15
2023-05-14T09:41:11.709Z,26.92
2023-05-14T09:43:49.161Z,26.64
2023-05-14T09:46:19.072Z,26.23
2023-05-14T09:48:48.269Z,25.87
2023-05-14T09:51:18.456Z,25.96
2023-05-14T09:55:03.580Z,26.22
2023-05-14T09:57:35.512Z,26.79
2023-05-14T10:00:05.187Z,26.72
2023-05-14T10:02:38.938Z,26.76
2023-05-14T10:05:09.858Z,26.26
2023-05-14T10:07:44.071Z,25.55
2023-05-14T10:10:45.592Z,26.11
2023-05-14T10:13:31.071Z,24.66
2023-05-14T10:16:10.180Z,23.71
2023-05-14T10:18:45.999Z,23.95
2023-05-14T10:21:19.725Z,21.60
2023-05-14T10:23:52.876Z,21.40
2023-05-14T10:26:23.974Z,20.92
2023-05-14T10:28:56.074Z,20.81
2023-05-14T10:31:46.309Z,19.40
2023-05-14T10:34:39.063Z,20.15
2023-05-14T10:37:10.736Z,19.11
2023-05-14T10:39:47.730Z,18.69
2023-05-14T10:42:21.903Z,17.55
2023-05-14T10:45:00.437Z,18.14
2023-05-14T10:47:37.263Z,20.88
2023-05-14T10:50:08.727Z,19.92
2023-05-14T10:52:40.105Z,19.48
2023-05-14T10:55:12.560Z,17.89
2023-05-14T10:57:44.146Z,18.43
2023-05-14T11:00:16.481Z,18.15
2023-05-14T11:02:57.174Z,21.55
2023-05-14T11:05:27.758Z,23.00
2023-05-14T11:07:59.442Z,23.30
2023-05-14T11:10:30.197Z,23.28
2023-05-14T11:12:59.481Z,20.36
2023-05-14T11:15:29.805Z,21.66
2023-05-14T11:17:58.866Z,20.47
2023-05-14T11:20:27.936Z,20.01
2023-05-14T11:22:57.105Z,17.20
2023-05-14T11:25:26.821Z,20.62
2023-05-14T11:27:58.888Z,20.96
2023-05-14T11:30:29.694Z,20.25
2023-05-14T11:33:01.236Z,20.42
2023-05-14T11:35:31.754Z,17.58
2023-05-14T11:38:00.948Z,16.80
2023-05-14T11:40:30.531Z,16.64
2023-05-14T11:42:59.702Z,15.83
2023-05-14T11:45:30.440Z,14.86
2023-05-14T11:47:59.390Z,15.52
2023-05-14T11:50:29.491Z,16.22
2023-05-14T11:52:58.794Z,18.78
2023-05-14T11:55:28.058Z,16.38
2023-05-14T11:57:57.655Z,15.44
2023-05-14T12:00:31.523Z,14.97
2023-05-14T12:03:01.226Z,17.22
2023-05-14T12:05:30.532Z,18.27
2023-05-14T12:07:59.818Z,16.15
2023-05-14T12:10:28.715Z,18.25
2023-05-14T12:12:57.851Z,18.52
2023-05-14T12:15:27.913Z,17.38
2023-05-14T12:17:58.528Z,15.57
2023-05-14T12:20:28.674Z,15.29
2023-05-14T12:22:57.730Z,15.50
2023-05-14T12:25:27.037Z,15.03
2023-05-14T12:27:55.983Z,14.46
2023-05-14T12:30:24.890Z,14.34
2023-05-14T12:32:56.361Z,14.40
2023-05-14T12:35:28.863Z,14.11
2023-05-14T12:37:58.011Z,13.82
2023-05-14T12:40:28.034Z,14.15
2023-05-14T12:43:02.795Z,13.39
2023-05-14T12:45:32.636Z,13.32
2023-05-14T12:48:11.035Z,13.18
2023-05-14T12:50:42.019Z,13.31
2023-05-14T12:53:16.331Z,14.29
2023-05-14T12:55:45.959Z,14.88
2023-05-14T12:58:18.137Z,14.24
2023-05-14T13:00:47.053Z,13.92
2023-05-14T13:03:16.530Z,14.02
2023-05-14T13:05:46.938Z,15.13
2023-05-14T13:08:18.018Z,14.55
2023-05-14T13:10:47.599Z,13.43
2023-05-14T13:13:32.992Z,13.43
2023-05-14T13:16:10.984Z,12.99
2023-05-14T13:18:41.691Z,14.84
2023-05-14T13:21:12.854Z,13.72
2023-05-14T13:23:42.521Z,14.22
2023-05-14T13:26:12.012Z,15.11
2023-05-14T13:28:45.159Z,13.91
2023-05-14T13:31:15.820Z,13.49
2023-05-14T13:33:46.233Z,12.90
2023-05-14T13:36:17.028Z,13.02
2023-05-14T13:38:47.023Z,13.16
2023-05-14T13:41:16.143Z,17.76
2023-05-14T13:43:45.474Z,17.93
2023-05-14T13:46:14.618Z,21.47
2023-05-14T13:48:44.008Z,22.49
2023-05-14T13:51:13.676Z,19.40
2023-05-14T13:53:45.520Z,17.14
2023-05-14T13:56:14.706Z,16.63
2023-05-14T13:58:43.954Z,17.00
2023-05-14T14:01:13.907Z,16.71
2023-05-14T14:03:42.951Z,16.51
2023-05-14T14:06:14.121Z,15.79
2023-05-14T14:08:44.803Z,16.04
2023-05-14T14:11:14.184Z,15.84
2023-05-14T14:13:45.145Z,19.19
2023-05-14T14:16:15.983Z,18.48
2023-05-14T14:18:48.553Z,21.81
2023-05-14T14:21:18.549Z,23.51
2023-05-14T14:23:55.256Z,21.89
2023-05-14T14:26:28.132Z,18.67
2023-05-14T14:29:00.969Z,19.74
2023-05-14T14:31:30.847Z,20.49
2023-05-14T14:34:00.635Z,22.19
2023-05-14T14:36:31.962Z,20.08
2023-05-14T14:39:02.790Z,19.08
2023-05-14T14:41:32.732Z,18.01
2023-05-14T14:44:03.481Z,18.40
2023-05-14T14:46:35.720Z,16.80
2023-05-14T14:49:07.774Z,17.36
2023-05-14T14:51:37.212Z,17.81
2023-05-14T14:54:09.982Z,18.21
2023-05-14T14:56:41.315Z,17.65
2023-05-14T14:59:15.074Z,17.19
2023-05-14T15:01:44.914Z,17.32
2023-05-14T15:04:15.460Z,16.39
2023-05-14T15:06:44.552Z,15.63
2023-05-14T15:09:15.112Z,16.25
2023-05-14T15:11:44.409Z,16.49
2023-05-14T15:14:13.663Z,15.87
2023-05-14T15:16:43.327Z,16.57
2023-05-14T15:19:15.512Z,16.48
2023-05-14T15:21:46.888Z,16.51
2023-05-14T15:24:17.916Z,17.63
2023-05-14T15:26:47.387Z,17.15
2023-05-14T15:29:27.066Z,16.31
2023-05-14T15:32:03.095Z,16.96
2023-05-14T15:34:35.873Z,17.38
2023-05-14T15:37:05.156Z,18.01
2023-05-14T15:39:35.640Z,20.88
2023-05-14T15:42:05.684Z,23.15
2023-05-14T15:44:39.019Z,22.87
2023-05-14T15:47:08.891Z,23.30
2023-05-14T15:49:38.020Z,23.38
2023-05-14T15:52:09.748Z,23.72
2023-05-14T15:54:42.447Z,23.59
2023-05-14T15:57:12.242Z,23.64
2023-05-14T15:59:41.122Z,24.43
2023-05-14T16:02:14.150Z,24.24
2023-05-14T16:04:46.936Z,23.90
2023-05-14T16:07:16.494Z,24.08
2023-05-14T16:09:46.988Z,23.07
2023-05-14T16:12:17.446Z,22.54
2023-05-14T16:14:51.490Z,22.37
2023-05-14T16:17:33.796Z,22.73
2023-05-14T16:20:15.289Z,22.70
2023-05-14T16:22:47.893Z,23.13
2023-05-14T16:25:59.966Z,24.27
2023-05-14T16:28:30.554Z,26.40
2023-05-14T16:31:01.411Z,26.61
2023-05-14T16:33:32.225Z,26.89
2023-05-14T16:36:01.248Z,27.24
2023-05-14T16:38:30.578Z,28.32
2023-05-14T16:40:59.725Z,28.92
2023-05-14T16:43:30.566Z,28.61
2023-05-14T16:45:59.976Z,28.50
2023-05-14T16:48:29.475Z,28.98
2023-05-14T16:50:59.541Z,29.18
2023-05-14T16:53:28.770Z,28.83
2023-05-14T16:55:57.742Z,30.25
2023-05-14T16:58:27.000Z,28.74
2023-05-14T17:00:57.674Z,28.89
2023-05-14T17:03:26.900Z,28.93
2023-05-14T17:05:55.937Z,29.90
2023-05-14T17:08:26.422Z,29.58
2023-05-14T17:10:55.403Z,30.93
2023-05-14T17:13:24.592Z,31.93
2023-05-14T17:15:53.850Z,30.00
2023-05-14T17:18:26.269Z,31.11
2023-05-14T17:20:55.748Z,29.71
2023-05-14T17:23:26.719Z,30.29
2023-05-14T17:25:59.214Z,29.37
2023-05-14T17:28:31.315Z,28.92
2023-05-14T17:31:14.535Z,30.93
2023-05-14T17:33:45.850Z,30.33
2023-05-14T17:36:15.455Z,31.90
2023-05-14T17:38:44.504Z,32.70
2023-05-14T17:41:13.774Z,33.36
2023-05-14T17:43:43.002Z,33.21
2023-05-14T17:46:14.453Z,33.60
2023-05-14T17:48:47.083Z,32.29
2023-05-14T17:51:24.147Z,33.15
2023-05-14T17:53:57.367Z,33.66
2023-05-14T17:56:32.615Z,33.91
2023-05-14T17:59:04.735Z,34.28
2023-05-14T18:01:34.165Z,34.47
2023-05-14T18:04:26.271Z,35.86
2023-05-14T18:06:55.291Z,35.28
2023-05-14T18:09:29.172Z,35.62
2023-05-14T18:11:58.517Z,35.80
2023-05-14T18:14:30.027Z,36.73
2023-05-14T18:17:01.616Z,36.41
2023-05-14T18:19:32.516Z,37.65
2023-05-14T18:22:02.272Z,38.32
2023-05-14T18:24:34.259Z,38.98
2023-05-14T18:27:05.116Z,40.53
2023-05-14T18:29:41.594Z,41.95
2023-05-14T18:32:10.748Z,40.23
2023-05-14T18:34:54.248Z,38.81
2023-05-14T18:37:28.789Z,41.73
2023-05-14T18:39:57.791Z,42.08
2023-05-14T18:42:27.596Z,43.01
2023-05-14T18:44:56.757Z,43.61
2023-05-14T18:47:26.058Z,44.28
2023-05-14T18:49:59.680Z,45.11
2023-05-14T18:52:41.071Z,44.90
2023-05-14T18:55:11.329Z,45.61
2023-05-14T18:57:46.829Z,44.27
2023-05-14T19:00:17.391Z,45.47
2023-05-14T19:02:46.956Z,47.36
2023-05-14T19:05:17.532Z,47.73
2023-05-14T19:07:49.758Z,49.10
2023-05-14T19:10:19.603Z,47.82
2023-05-14T19:12:52.017Z,46.45
2023-05-14T19:15:27.999Z,45.93
2023-05-14T19:17:58.962Z,46.06
2023-05-14T19:20:29.436Z,47.41
2023-05-14T19:22:58.776Z,48.85
2023-05-14T19:25:27.903Z,50.44
2023-05-14T19:28:02.634Z,52.95
2023-05-14T19:30:34.662Z,53.76
2023-05-14T19:33:05.190Z,54.37
2023-05-14T19:35:35.839Z,53.95
2023-05-14T19:38:05.012Z,54.80
2023-05-14T19:40:33.905Z,53.88
2023-05-14T19:43:03.198Z,57.73
2023-05-14T19:45:32.410Z,58.55
2023-05-14T19:48:01.769Z,60.12
2023-05-14T19:50:31.055Z,61.87
2023-05-14T19:53:01.397Z,64.35
2023-05-14T19:55:32.353Z,65.97
2023-05-14T19:58:08.965Z,65.23
2023-05-14T20:00:54.120Z,63.35
2023-05-14T20:03:30.076Z,62.18
2023-05-14T20:05:59.523Z,67.09
2023-05-14T20:08:36.225Z,70.05
2023-05-14T20:11:05.454Z,73.77
2023-05-14T20:13:50.658Z,78.27
2023-05-14T20:16:20.424Z,83.66
2023-05-14T20:18:49.707Z,88.89
2023-05-14T20:21:19.016Z,88.16
2023-05-14T20:23:49.336Z,91.48
2023-05-14T20:26:18.738Z,91.13
2023-05-14T20:28:47.735Z,90.99
2023-05-14T20:31:19.286Z,92.88
2023-05-14T20:33:48.374Z,90.69
2023-05-14T20:36:17.436Z,89.27
2023-05-14T20:38:47.488Z,95.02
2023-05-14T20:41:18.565Z,97.71
2023-05-14T20:43:47.538Z,100.00
2023-05-14T20:46:17.275Z,99.49
2023-05-14T20:48:48.295Z,100.00
2023-05-14T20:51:17.329Z,100.00
2023-05-14T20:53:46.847Z,100.00
2023-05-14T20:56:17.998Z,100.00
2023-05-14T20:58:47.454Z,100.00
2023-05-14T21:01:16.723Z,100.00
2023-05-14T21:03:46.370Z,100.00
2023-05-14T21:06:15.702Z,100.00
2023-05-14T21:08:45.137Z,100.00
2023-05-14T21:11:15.255Z,100.00
2023-05-14T21:13:45.829Z,100.00
2023-05-14T21:16:14.942Z,100.00
2023-05-14T21:18:44.406Z,100.00
2023-05-14T21:21:13.658Z,100.00
2023-05-14T21:23:42.734Z,100.00
2023-05-14T21:26:11.861Z,100.00
2023-05-14T21:28:40.865Z,100.00
2023-05-14T21:31:11.533Z,100.00
2023-05-14T21:33:41.641Z,100.00
2023-05-14T21:36:11.100Z,100.00
2023-05-14T21:38:40.105Z,100.00
2023-05-14T21:41:13.141Z,100.00
2023-05-14T21:43:42.080Z,100.00
2023-05-14T21:46:12.679Z,100.00
2023-05-14T21:48:41.597Z,100.00
2023-05-14T21:51:11.560Z,100.00
2023-05-14T21:53:41.455Z,100.00
2023-05-14T21:56:12.915Z,100.00
2023-05-14T21:58:42.404Z,100.00
2023-05-14T22:01:12.878Z,100.00
2023-05-14T22:03:41.977Z,100.00
2023-05-14T22:06:11.025Z,100.00
2023-05-14T22:08:40.147Z,100.00
2023-05-14T22:11:11.244Z,100.00
2023-05-14T22:13:41.095Z,100.00
2023-05-14T22:16:13.257Z,100.00
2023-05-14T22:18:44.254Z,100.00
2023-05-14T22:21:13.252Z,100.00
2023-05-14T22:23:42.501Z,100.00
2023-05-14T22:26:11.687Z,100.00
2023-05-14T22:28:43.151Z,100.00
2023-05-14T22:31:12.196Z,100.00
2023-05-14T22:33:41.445Z,100.00
2023-05-14T22:36:12.159Z,100.00
2023-05-14T22:38:41.636Z,100.00
2023-05-14T22:41:11.278Z,100.00
2023-05-14T22:43:42.315Z,100.00
2023-05-14T22:46:11.756Z,100.00
2023-05-14T22:48:40.705Z,100.00
2023-05-14T22:51:11.042Z,100.00
2023-05-14T22:53:40.037Z,100.00
2023-05-14T22:56:09.335Z,100.00
2023-05-14T22:58:38.332Z,100.00
2023-05-14T23:01:07.507Z,100.00
2023-05-14T23:03:36.397Z,100.00
2023-05-14T23:06:05.655Z,100.00
2023-05-14T23:08:36.008Z,100.00
2023-05-14T23:11:07.667Z,100.00
2023-05-14T23:13:36.568Z,100.00
2023-05-14T23:16:06.454Z,100.00
2023-05-14T23:18:35.552Z,100.00
2023-05-14T23:21:04.784Z,100.00
2023-05-14T23:23:35.190Z,100.00
2023-05-14T23:26:07.495Z,100.00
2023-05-14T23:28:36.674Z,100.00
2023-05-14T23:31:06.014Z,100.00
2023-05-14T23:33:37.021Z,100.00
2023-05-14T23:36:06.718Z,100.00
2023-05-14T23:38:37.471Z,100.00
2023-05-14T23:41:08.385Z,100.00
2023-05-14T23:43:41.391Z,100.00
2023-05-14T23:46:10.691Z,100.00
2023-05-14T23:48:39.912Z,100.00
2023-05-14T23:51:09.276Z,100.00
2023-05-14T23:53:39.708Z,100.00
2023-05-14T23:56:09.739Z,100.00
2023-05-14T23:58:38.890Z,100.00
